createdAt,value
2022-08-01T03:19:13.098Z,19.89
2022-08-01T03:22:26.336Z,19.76
2022-08-01T03:25:40.141Z,19.65
2022-08-01T03:28:52.539Z,19.48
2022-08-01T03:32:04.174Z,19.30
2022-08-01T03:35:15.937Z,19.30
2022-08-01T03:38:29.091Z,19.29
2022-08-01T03:41:43.052Z,19.29
2022-08-01T03:44:57.979Z,19.30
2022-08-01T03:48:12.379Z,19.26
2022-08-01T03:51:25.446Z,19.20
2022-08-01T03:54:39.531Z,19.16
2022-08-01T03:57:50.611Z,19.05
2022-08-01T04:01:01.205Z,18.92
2022-08-01T04:04:11.799Z,18.78
2022-08-01T04:07:29.200Z,18.71
2022-08-01T04:10:39.811Z,18.64
2022-08-01T04:13:49.961Z,18.56
2022-08-01T04:17:01.177Z,18.48
2022-08-01T04:20:13.109Z,18.46
2022-08-01T04:23:27.965Z,18.40
2022-08-01T04:26:40.468Z,18.42
2022-08-01T04:29:53.683Z,18.43
2022-08-01T04:33:07.255Z,18.41
2022-08-01T04:36:21.948Z,18.40
2022-08-01T04:39:50.747Z,18.52
2022-08-01T04:43:02.200Z,18.57
2022-08-01T04:46:13.539Z,18.61
2022-08-01T04:49:24.122Z,18.60
2022-08-01T04:52:36.418Z,18.59
2022-08-01T04:55:48.393Z,18.72
2022-08-01T04:59:09.496Z,18.88
2022-08-01T05:59:24.263Z,21.73
2022-08-01T06:02:34.778Z,21.89
2022-08-01T06:05:45.078Z,22.02
2022-08-01T06:08:55.572Z,22.09
2022-08-01T06:12:06.495Z,22.20
2022-08-01T06:15:18.204Z,22.22
2022-08-01T06:18:28.454Z,22.33
2022-08-01T06:21:38.773Z,22.52
2022-08-01T06:24:49.535Z,22.58
2022-08-01T06:27:59.624Z,22.60
2022-08-01T06:31:13.593Z,22.63
2022-08-01T06:34:23.970Z,22.64
2022-08-01T06:37:34.797Z,22.73
2022-08-01T06:40:44.903Z,22.80
2022-08-01T06:43:55.504Z,22.85
2022-08-01T06:47:06.951Z,22.86
2022-08-01T06:50:16.963Z,22.96
2022-08-01T06:53:27.004Z,23.00
2022-08-01T06:56:37.347Z,22.96
2022-08-01T06:59:54.301Z,23.08
2022-08-01T07:03:06.325Z,23.15
2022-08-01T07:06:16.695Z,23.19
2022-08-01T07:09:26.781Z,23.30
2022-08-01T07:12:38.914Z,23.50
2022-08-01T07:15:49.514Z,23.70
2022-08-01T07:19:01.065Z,23.88
2022-08-01T07:22:11.187Z,23.71
2022-08-01T07:25:21.360Z,23.65
2022-08-01T07:28:32.102Z,23.83
2022-08-01T07:31:42.518Z,23.81
2022-08-01T07:34:54.431Z,23.83
2022-08-01T07:38:04.751Z,23.84
2022-08-01T07:41:14.951Z,23.99
2022-08-01T07:44:25.147Z,24.11
2022-08-01T07:47:39.442Z,24.10
2022-08-01T07:50:50.983Z,24.06
2022-08-01T07:54:01.697Z,24.06
2022-08-01T07:57:12.371Z,24.14
2022-08-01T08:00:22.676Z,24.43
2022-08-01T08:03:32.975Z,24.90
2022-08-01T08:06:45.585Z,25.17
2022-08-01T08:09:55.966Z,25.24
2022-08-01T08:13:06.632Z,25.06
2022-08-01T08:16:16.728Z,25.16
2022-08-01T08:19:37.634Z,25.53
2022-08-01T08:22:51.268Z,26.05
2022-08-01T08:26:02.176Z,26.38
2022-08-01T08:29:12.696Z,26.52
2022-08-01T08:32:22.983Z,26.36
2022-08-01T08:35:53.321Z,25.91
2022-08-01T08:39:05.026Z,25.97
2022-08-01T08:42:15.364Z,26.43
2022-08-01T08:45:30.871Z,26.91
2022-08-01T08:48:58.177Z,27.43
2022-08-01T08:52:10.637Z,27.85
2022-08-01T08:55:24.034Z,28.49
2022-08-01T08:58:38.490Z,28.98
2022-08-01T09:03:04.402Z,29.46
2022-08-01T09:07:10.630Z,29.87
2022-08-01T09:10:23.871Z,29.92
2022-08-01T09:13:34.231Z,30.21
2022-08-01T09:16:48.848Z,29.88
2022-08-01T09:19:59.514Z,29.76
2022-08-01T09:23:33.431Z,29.48
2022-08-01T09:26:45.877Z,28.69
2022-08-01T09:30:01.267Z,28.14
2022-08-01T09:33:21.620Z,27.56
2022-08-01T09:36:49.467Z,27.70
2022-08-01T09:40:46.123Z,27.68
2022-08-01T09:43:58.482Z,27.01
2022-08-01T09:47:09.129Z,26.49
2022-08-01T09:50:20.577Z,26.68
2022-08-01T09:53:42.735Z,27.58
2022-08-01T09:57:12.925Z,28.78
2022-08-01T10:00:44.294Z,29.51
2022-08-01T10:04:15.255Z,29.69
2022-08-01T10:07:27.655Z,29.41
2022-08-01T10:11:10.241Z,29.13
2022-08-01T10:14:25.618Z,28.55
2022-08-01T10:17:50.947Z,28.05
2022-08-01T10:21:04.095Z,28.24
2022-08-01T10:24:22.079Z,28.81
2022-08-01T10:27:39.734Z,29.34
2022-08-01T10:30:51.005Z,29.82
2022-08-01T10:34:05.604Z,30.23
2022-08-01T10:37:18.211Z,30.58
2022-08-01T10:40:31.261Z,31.16
2022-08-01T10:43:42.270Z,31.45
2022-08-01T10:47:05.293Z,31.06
2022-08-01T10:50:29.780Z,30.90
2022-08-01T10:53:49.005Z,31.24
2022-08-01T10:57:02.638Z,31.50
2022-08-01T11:00:19.859Z,31.68
2022-08-01T11:03:56.035Z,31.48
2022-08-01T11:07:14.264Z,31.00
2022-08-01T11:10:30.670Z,30.90
2022-08-01T11:14:05.264Z,30.98
2022-08-01T11:17:38.039Z,31.37
2022-08-01T11:21:58.128Z,31.87
2022-08-01T11:28:34.621Z,31.46
2022-08-01T11:31:47.141Z,31.15
2022-08-01T11:34:59.181Z,30.95
2022-08-01T11:38:25.291Z,30.52
2022-08-01T11:41:39.310Z,30.33
2022-08-01T11:44:54.224Z,30.20
2022-08-01T11:48:20.223Z,29.98
2022-08-01T11:51:30.967Z,30.20
2022-08-01T11:54:47.890Z,29.99
2022-08-01T11:58:03.043Z,29.71
2022-08-01T12:01:16.722Z,29.54
2022-08-01T12:04:27.401Z,29.58
2022-08-01T12:07:39.292Z,30.31
2022-08-01T12:10:52.753Z,30.95
2022-08-01T12:14:18.846Z,31.35
2022-08-01T12:17:36.408Z,31.05
2022-08-01T12:20:56.560Z,30.50
2022-08-01T12:24:08.174Z,30.25
2022-08-01T12:27:28.000Z,29.85
2022-08-01T12:30:40.140Z,29.48
2022-08-01T12:33:52.112Z,29.36
2022-08-01T12:37:04.483Z,29.36
2022-08-01T12:40:17.675Z,29.61
2022-08-01T12:43:29.715Z,29.67
2022-08-01T12:46:44.405Z,29.74
2022-08-01T12:49:56.843Z,29.85
2022-08-01T12:53:08.325Z,29.90
2022-08-01T12:56:18.981Z,29.75
2022-08-01T12:59:30.515Z,29.86
2022-08-01T13:02:42.482Z,30.04
2022-08-01T13:05:56.507Z,30.23
2022-08-01T13:09:08.246Z,30.15
2022-08-01T13:12:19.590Z,29.82
2022-08-01T13:15:33.384Z,29.75
2022-08-01T13:18:51.571Z,29.82
2022-08-01T13:22:03.833Z,29.97
2022-08-01T13:25:18.619Z,30.13
2022-08-01T13:28:32.444Z,30.09
2022-08-01T13:31:43.707Z,30.18
2022-08-01T13:35:03.198Z,30.48
2022-08-01T13:38:15.193Z,30.81
2022-08-01T13:41:25.892Z,30.96
2022-08-01T13:44:36.617Z,30.81
2022-08-01T13:48:11.419Z,30.41
2022-08-01T13:51:22.317Z,30.24
2022-08-01T13:54:35.399Z,30.08
2022-08-01T13:57:46.437Z,30.05
2022-08-01T14:00:57.827Z,30.06
2022-08-01T14:04:08.779Z,30.21
2022-08-01T14:07:19.720Z,30.25
2022-08-01T14:10:32.461Z,30.26
2022-08-01T14:13:45.128Z,30.41
2022-08-01T14:16:57.646Z,30.45
2022-08-01T14:20:08.674Z,30.34
2022-08-01T14:23:19.533Z,30.31
2022-08-01T14:26:31.523Z,30.16
2022-08-01T14:29:59.904Z,30.16
2022-08-01T14:33:14.127Z,30.17
2022-08-01T14:36:30.296Z,30.24
2022-08-01T14:39:42.361Z,30.23
2022-08-01T14:43:05.692Z,30.08
2022-08-01T14:46:35.961Z,29.90
2022-08-01T14:49:47.204Z,29.88
2022-08-01T14:52:57.886Z,29.96
2022-08-01T14:56:09.303Z,30.04
2022-08-01T14:59:22.122Z,29.81
2022-08-01T15:02:32.782Z,29.68
2022-08-01T15:05:43.822Z,29.70
2022-08-01T15:08:54.504Z,29.89
2022-08-01T15:12:05.814Z,29.89
2022-08-01T15:15:17.836Z,29.80
2022-08-01T15:18:28.614Z,30.43
2022-08-01T15:21:42.008Z,30.65
2022-08-01T15:24:57.262Z,30.46
2022-08-01T15:28:09.525Z,30.13
2022-08-01T15:31:21.563Z,29.77
2022-08-01T15:34:32.773Z,29.56
2022-08-01T15:37:44.050Z,29.26
2022-08-01T15:40:54.702Z,29.06
2022-08-01T15:44:05.573Z,28.83
2022-08-01T15:47:17.845Z,28.67
2022-08-01T15:50:28.546Z,28.49
2022-08-01T15:53:39.206Z,28.29
2022-08-01T15:56:49.954Z,28.13
2022-08-01T16:00:00.673Z,28.01
2022-08-01T16:03:12.937Z,27.84
2022-08-01T16:06:23.595Z,27.68
2022-08-01T16:09:34.312Z,27.51
2022-08-01T16:12:45.203Z,27.45
2022-08-01T16:15:55.966Z,27.42
2022-08-01T16:19:08.094Z,27.48
2022-08-01T16:22:18.904Z,27.55
2022-08-01T16:25:29.776Z,27.52
2022-08-01T16:28:41.236Z,27.43
2022-08-01T16:32:06.610Z,27.43
2022-08-01T16:35:24.481Z,27.42
2022-08-01T16:38:40.026Z,27.36
2022-08-01T16:41:55.381Z,27.32
2022-08-01T16:45:12.703Z,27.15
2022-08-01T16:48:26.983Z,27.08
2022-08-01T16:51:48.243Z,27.04
2022-08-01T16:54:59.192Z,26.99
2022-08-01T16:58:11.993Z,26.89
2022-08-01T17:01:58.572Z,26.87
2022-08-01T17:04:55.428Z,26.84
2022-08-01T17:08:09.514Z,26.84
2022-08-01T17:11:20.510Z,26.73
2022-08-01T17:14:33.610Z,26.57
2022-08-01T17:17:44.577Z,26.44
2022-08-01T17:20:55.217Z,26.31
2022-08-01T17:24:07.858Z,26.18
2022-08-01T17:27:18.856Z,26.03
2022-08-01T17:30:29.635Z,25.90
2022-08-01T17:33:45.562Z,25.82
2022-08-01T17:36:57.482Z,25.82
2022-08-01T17:40:38.546Z,25.82
2022-08-01T17:43:41.317Z,25.91
2022-08-01T17:46:52.226Z,26.03
2022-08-01T17:50:04.361Z,26.13
2022-08-01T17:53:16.013Z,26.16
2022-08-01T17:56:38.101Z,26.19
2022-08-01T17:59:50.628Z,26.21
2022-08-01T18:03:01.811Z,26.16
2022-08-01T18:06:15.566Z,26.06
2022-08-01T18:09:26.732Z,25.91
2022-08-01T18:12:38.915Z,25.84
2022-08-01T18:15:50.609Z,25.75
2022-08-01T18:19:01.335Z,25.73
2022-08-01T18:22:31.320Z,25.67
2022-08-01T18:25:43.315Z,25.60
2022-08-01T18:28:55.550Z,25.56
2022-08-01T18:32:09.056Z,25.47
2022-08-01T18:35:19.942Z,25.39
2022-08-01T18:38:33.191Z,25.36
2022-08-01T18:41:43.970Z,25.32
2022-08-01T18:44:55.962Z,25.26
2022-08-01T18:48:06.984Z,25.17
2022-08-01T18:51:17.516Z,25.08
2022-08-01T18:54:28.488Z,25.00
2022-08-01T18:57:42.627Z,24.89
2022-08-01T19:00:55.095Z,24.73
2022-08-01T19:04:06.255Z,24.63
2022-08-01T19:07:33.493Z,24.46
2022-08-01T19:10:48.027Z,24.36
2022-08-01T19:13:58.883Z,24.24
2022-08-01T19:17:10.960Z,24.10
2022-08-01T19:20:21.946Z,23.99
2022-08-01T19:23:43.396Z,23.87
2022-08-01T19:26:56.941Z,23.68
2022-08-01T19:30:08.657Z,23.47
2022-08-01T19:33:21.016Z,23.26
2022-08-01T19:36:32.452Z,23.05
2022-08-01T19:39:46.222Z,22.91
2022-08-01T19:42:57.999Z,22.82
2022-08-01T19:46:17.672Z,22.77
2022-08-01T19:49:30.341Z,22.74
2022-08-01T19:52:41.717Z,22.64
2022-08-01T19:55:54.148Z,22.48
2022-08-01T19:59:08.150Z,22.26
2022-08-01T20:02:20.429Z,22.09
2022-08-01T20:05:32.779Z,21.91
2022-08-01T20:08:44.431Z,21.72
2022-08-01T20:11:55.929Z,21.54
2022-08-01T20:15:07.085Z,21.42
2022-08-01T20:18:17.808Z,21.36
2022-08-01T20:21:30.445Z,21.24
2022-08-01T20:24:43.884Z,21.05
2022-08-01T20:27:57.083Z,20.87
2022-08-01T20:31:10.722Z,20.83
2022-08-01T20:34:24.767Z,20.74
2022-08-01T20:38:01.251Z,20.72
2022-08-01T20:41:12.363Z,20.66
2022-08-01T20:44:24.026Z,20.57
2022-08-01T20:47:34.477Z,20.46
2022-08-01T20:50:57.031Z,20.34
2022-08-01T20:54:09.170Z,20.27
2022-08-01T20:57:25.666Z,20.24
2022-08-01T21:00:38.461Z,20.15
2022-08-01T21:04:06.157Z,20.04
2022-08-01T21:07:24.823Z,19.87
2022-08-01T21:10:38.235Z,19.83
2022-08-01T21:13:50.739Z,19.75
2022-08-01T21:17:06.264Z,19.72
2022-08-01T21:20:20.608Z,19.61
2022-08-01T21:23:34.446Z,19.51
2022-08-01T21:26:53.305Z,19.45
2022-08-01T21:30:08.902Z,19.42
2022-08-01T21:33:19.849Z,19.38
2022-08-01T21:36:33.052Z,19.27
2022-08-01T21:39:48.396Z,19.19
2022-08-01T21:43:01.944Z,19.14
2022-08-01T21:46:17.158Z,19.19
2022-08-01T21:49:28.164Z,19.07
2022-08-01T21:52:45.140Z,18.93
2022-08-01T21:56:03.078Z,18.84
2022-08-01T21:59:44.791Z,18.75
2022-08-01T22:03:05.557Z,18.69
2022-08-01T22:06:19.135Z,18.69
2022-08-01T22:09:33.355Z,18.70
2022-08-01T22:12:44.602Z,18.65
2022-08-01T22:16:00.064Z,18.66
2022-08-01T22:19:32.370Z,18.60
2022-08-01T22:22:52.003Z,18.49
2022-08-01T22:26:10.519Z,18.43
2022-08-01T22:29:21.307Z,18.45
2022-08-01T22:32:34.437Z,18.46
2022-08-01T22:35:53.166Z,18.43
2022-08-01T22:39:05.291Z,18.34
2022-08-01T22:42:16.461Z,18.32
